createdAt,value
2022-08-23T00:00:26.255Z,99672.50
2022-08-23T00:02:54.446Z,99671.81
2022-08-23T00:05:22.528Z,99671.09
2022-08-23T00:07:50.315Z,99663.25
2022-08-23T00:10:18.001Z,99664.41
2022-08-23T00:12:45.762Z,99660.16
2022-08-23T00:15:13.508Z,99665.72
2022-08-23T00:17:42.456Z,99672.28
2022-08-23T00:20:10.165Z,99670.69
2022-08-23T00:22:37.907Z,99676.22
2022-08-23T00:25:05.726Z,99671.78
2022-08-23T00:27:33.843Z,99676.25
2022-08-23T00:30:01.617Z,99668.06
2022-08-23T00:32:29.502Z,99667.94
2022-08-23T00:34:57.287Z,99665.81
2022-08-23T00:37:25.131Z,99662.81
2022-08-23T00:39:52.924Z,99670.66
2022-08-23T00:42:43.692Z,99667.69
2022-08-23T00:45:29.213Z,99667.59
2022-08-23T00:47:58.131Z,99659.75
2022-08-23T00:50:25.953Z,99663.19
2022-08-23T00:52:53.657Z,99663.94
2022-08-23T00:55:21.782Z,99655.91
2022-08-23T00:57:49.527Z,99654.00
2022-08-23T01:00:17.365Z,99657.59
2022-08-23T01:02:45.148Z,99653.94
2022-08-23T01:05:13.041Z,99652.16
2022-08-23T01:07:41.612Z,99646.84
2022-08-23T01:10:09.786Z,99652.31
2022-08-23T01:12:47.900Z,99652.00
2022-08-23T01:15:16.374Z,99655.25
2022-08-23T01:17:44.352Z,99652.91
2022-08-23T01:20:12.151Z,99651.41
2022-08-23T01:22:42.237Z,99651.59
2022-08-23T01:25:10.001Z,99656.13
2022-08-23T01:27:38.242Z,99657.00
2022-08-23T01:30:05.998Z,99655.13
2022-08-23T01:32:33.858Z,99654.78
2022-08-23T01:35:01.639Z,99661.47
2022-08-23T01:37:29.388Z,99656.75
2022-08-23T01:39:57.536Z,99658.22
2022-08-23T01:42:25.464Z,99659.72
2022-08-23T01:44:53.219Z,99662.25
2022-08-23T01:47:20.974Z,99663.91
2022-08-23T01:49:49.073Z,99660.19
2022-08-23T01:52:17.412Z,99664.41
2022-08-23T01:54:45.226Z,99666.28
2022-08-23T01:57:13.096Z,99661.22
2022-08-23T01:59:40.837Z,99663.44
2022-08-23T02:02:08.757Z,99664.84
2022-08-23T02:04:36.529Z,99665.19
2022-08-23T02:07:04.360Z,99660.16
2022-08-23T02:09:32.617Z,99655.31
2022-08-23T02:12:00.928Z,99661.91
2022-08-23T02:14:28.716Z,99660.22
2022-08-23T02:17:03.420Z,99669.34
2022-08-23T02:19:33.053Z,99664.50
2022-08-23T02:22:00.753Z,99660.09
2022-08-23T02:24:28.503Z,99660.47
2022-08-23T02:26:57.130Z,99664.38
2022-08-23T02:29:25.054Z,99662.69
2022-08-23T02:31:52.806Z,99664.75
2022-08-23T02:34:20.846Z,99667.78
2022-08-23T02:36:48.739Z,99661.72
2022-08-23T02:39:16.733Z,99664.78
2022-08-23T02:41:44.524Z,99666.81
2022-08-23T02:44:12.369Z,99671.56
2022-08-23T02:46:40.187Z,99671.91
2022-08-23T02:49:08.249Z,99671.44
2022-08-23T02:51:36.047Z,99673.28
2022-08-23T02:54:03.813Z,99671.78
2022-08-23T02:56:32.209Z,99668.59
2022-08-23T02:59:00.467Z,99671.50
2022-08-23T03:01:28.859Z,99672.31
2022-08-23T03:03:56.720Z,99676.03
2022-08-23T03:06:26.322Z,99669.34
2022-08-23T03:08:54.745Z,99673.06
2022-08-23T03:11:22.686Z,99673.06
2022-08-23T03:13:50.522Z,99672.34
2022-08-23T03:16:18.371Z,99670.81
2022-08-23T03:18:46.651Z,99675.56
2022-08-23T03:21:14.343Z,99674.06
2022-08-23T03:23:42.210Z,99685.19
2022-08-23T03:26:09.887Z,99677.13
2022-08-23T03:28:38.084Z,99679.81
2022-08-23T03:31:06.203Z,99686.03
2022-08-23T03:33:33.888Z,99683.16
2022-08-23T03:36:01.684Z,99685.53
2022-08-23T03:38:29.444Z,99673.72
2022-08-23T03:40:57.400Z,99681.59
2022-08-23T03:43:25.355Z,99684.13
2022-08-23T03:45:53.545Z,99684.00
2022-08-23T03:48:21.447Z,99676.91
2022-08-23T03:50:49.223Z,99681.31
2022-08-23T03:53:17.564Z,99686.00
2022-08-23T03:55:45.601Z,99683.66
2022-08-23T03:58:13.448Z,99684.03
2022-08-23T04:00:41.196Z,99692.28
2022-08-23T04:03:09.007Z,99689.94
2022-08-23T04:05:37.130Z,99700.03
2022-08-23T04:08:05.119Z,99698.34
2022-08-23T04:10:33.465Z,99704.13
2022-08-23T04:13:01.743Z,99705.31
2022-08-23T04:15:29.553Z,99706.47
2022-08-23T04:17:57.312Z,99706.66
2022-08-23T04:20:25.552Z,99711.59
2022-08-23T04:22:55.203Z,99711.91
2022-08-23T04:25:34.592Z,99713.94
2022-08-23T04:28:03.520Z,99709.91
2022-08-23T04:30:32.454Z,99716.66
2022-08-23T04:33:01.622Z,99718.88
2022-08-23T04:35:30.121Z,99723.78
2022-08-23T04:37:57.911Z,99726.78
2022-08-23T04:40:43.392Z,99730.69
2022-08-23T04:43:11.141Z,99730.19
2022-08-23T04:45:39.315Z,99737.44
2022-08-23T04:48:11.999Z,99740.28
2022-08-23T04:50:40.426Z,99740.13
2022-08-23T04:53:08.220Z,99748.03
2022-08-23T04:55:36.439Z,99752.41
2022-08-23T04:58:06.261Z,99758.47
2022-08-23T05:00:34.040Z,99754.75
2022-08-23T05:03:01.876Z,99758.78
2022-08-23T05:05:29.572Z,99757.59
2022-08-23T05:07:57.299Z,99756.72
2022-08-23T05:10:25.408Z,99769.53
2022-08-23T05:12:53.122Z,99761.56
2022-08-23T05:15:20.881Z,99755.31
2022-08-23T05:17:48.994Z,99755.28
2022-08-23T05:20:16.771Z,99755.09
2022-08-23T05:22:44.526Z,99764.69
2022-08-23T05:25:12.287Z,99765.47
2022-08-23T05:27:40.477Z,99768.13
2022-08-23T05:30:08.275Z,99770.59
2022-08-23T05:32:43.172Z,99773.91
2022-08-23T05:35:10.984Z,99778.06
2022-08-23T05:37:38.763Z,99781.38
2022-08-23T05:40:07.147Z,99780.31
2022-08-23T05:42:35.119Z,99780.06
2022-08-23T05:45:05.447Z,99779.00
2022-08-23T05:47:34.012Z,99782.94
2022-08-23T05:50:02.134Z,99786.25
2022-08-23T05:52:29.905Z,99788.16
2022-08-23T05:54:57.608Z,99789.38
2022-08-23T05:57:25.703Z,99789.59
2022-08-23T05:59:53.406Z,99788.47
2022-08-23T06:02:21.207Z,99794.44
2022-08-23T06:04:48.967Z,99793.38
2022-08-23T06:07:17.094Z,99792.25
2022-08-23T06:09:44.854Z,99797.41
2022-08-23T06:12:12.673Z,99791.69
2022-08-23T06:14:40.420Z,99796.41
2022-08-23T06:17:08.916Z,99792.84
2022-08-23T06:19:36.599Z,99801.59
2022-08-23T06:22:04.398Z,99804.09
2022-08-23T06:24:32.402Z,99791.34
2022-08-23T06:27:00.220Z,99791.50
2022-08-23T06:29:27.938Z,99789.69
2022-08-23T06:31:56.750Z,99797.03
2022-08-23T06:34:24.472Z,99798.94
2022-08-23T06:36:53.063Z,99799.66
2022-08-23T06:39:20.828Z,99805.22
2022-08-23T06:41:49.589Z,99806.63
2022-08-23T06:44:17.709Z,99800.88
2022-08-23T06:46:45.717Z,99804.06
2022-08-23T06:49:13.956Z,99805.81
2022-08-23T06:51:42.247Z,99806.94
2022-08-23T06:54:10.076Z,99801.41
2022-08-23T06:56:40.083Z,99800.81
2022-08-23T06:59:07.916Z,99800.44
2022-08-23T07:01:48.979Z,99796.31
2022-08-23T07:04:16.872Z,99800.75
2022-08-23T07:06:44.964Z,99791.81
2022-08-23T07:09:12.803Z,99799.78
2022-08-23T07:11:40.726Z,99796.94
2022-08-23T07:14:08.859Z,99800.06
2022-08-23T07:16:36.775Z,99804.28
2022-08-23T07:19:04.592Z,99816.19
2022-08-23T07:21:32.708Z,99812.22
2022-08-23T07:24:00.478Z,99813.72
2022-08-23T07:26:28.325Z,99816.63
2022-08-23T07:28:57.724Z,99817.25
2022-08-23T07:31:27.492Z,99813.25
2022-08-23T07:33:55.394Z,99811.56
2022-08-23T07:36:27.998Z,99820.34
2022-08-23T07:38:55.961Z,99818.44
2022-08-23T07:41:24.269Z,99827.38
2022-08-23T07:43:52.407Z,99822.09
2022-08-23T07:46:20.201Z,99823.72
2022-08-23T07:48:54.345Z,99820.06
2022-08-23T07:51:23.081Z,99829.06
2022-08-23T07:53:51.072Z,99823.97
2022-08-23T07:56:18.798Z,99818.84
2022-08-23T07:58:46.566Z,99829.88
2022-08-23T08:01:15.941Z,99824.63
2022-08-23T08:03:44.013Z,99823.50
2022-08-23T08:06:12.775Z,99820.50
2022-08-23T08:08:41.833Z,99825.06
2022-08-23T08:11:09.543Z,99829.66
2022-08-23T08:13:38.326Z,99834.38
2022-08-23T08:16:06.312Z,99829.88
2022-08-23T08:18:34.485Z,99826.78
2022-08-23T08:21:02.453Z,99826.06
2022-08-23T08:23:30.575Z,99831.59
2022-08-23T08:25:58.318Z,99835.28
2022-08-23T08:28:26.062Z,99837.72
2022-08-23T08:30:53.806Z,99835.50
2022-08-23T08:33:21.574Z,99832.00
2022-08-23T08:35:57.628Z,99825.75
2022-08-23T08:38:30.761Z,99839.28
2022-08-23T08:40:58.559Z,99836.72
2022-08-23T08:43:26.386Z,99837.16
2022-08-23T08:45:59.113Z,99836.72
2022-08-23T08:48:26.914Z,99841.50
2022-08-23T08:50:54.648Z,99840.31
2022-08-23T08:53:22.411Z,99836.44
2022-08-23T08:55:50.114Z,99840.28
2022-08-23T08:58:20.968Z,99834.47
2022-08-23T09:00:50.712Z,99839.97
2022-08-23T09:03:21.702Z,99840.03
2022-08-23T09:05:49.506Z,99836.69
2022-08-23T09:08:17.525Z,99832.31
2022-08-23T09:10:45.223Z,99826.84
2022-08-23T09:13:12.988Z,99834.00
2022-08-23T09:15:41.214Z,99826.19
2022-08-23T09:18:09.225Z,99828.41
2022-08-23T09:20:37.141Z,99836.03
2022-08-23T09:23:05.741Z,99831.97
2022-08-23T09:25:34.008Z,99832.75
2022-08-23T09:28:02.094Z,99831.44
2022-08-23T09:30:30.196Z,99831.50
2022-08-23T09:32:58.005Z,99831.19
2022-08-23T09:35:25.774Z,99833.28
2022-08-23T09:37:53.943Z,99836.72
2022-08-23T09:40:21.615Z,99828.47
2022-08-23T09:42:49.405Z,99826.56
2022-08-23T09:45:17.043Z,99831.66
2022-08-23T09:47:45.076Z,99830.09
2022-08-23T09:50:12.788Z,99827.66
2022-08-23T09:52:40.473Z,99830.63
2022-08-23T09:55:08.114Z,99825.72
2022-08-23T09:57:36.098Z,99818.03
2022-08-23T10:00:03.857Z,99815.53
2022-08-23T10:02:31.817Z,99828.88
2022-08-23T10:04:59.910Z,99817.47
2022-08-23T10:07:31.135Z,99814.22
2022-08-23T10:09:58.954Z,99816.38
2022-08-23T10:12:26.575Z,99805.44
2022-08-23T10:14:54.942Z,99810.50
2022-08-23T10:17:22.620Z,99806.13
2022-08-23T10:19:50.420Z,99818.81
2022-08-23T10:22:18.041Z,99808.94
2022-08-23T10:24:46.153Z,99812.09
2022-08-23T10:27:27.617Z,99813.66
2022-08-23T10:29:55.812Z,99810.66
2022-08-23T10:32:23.511Z,99811.41
2022-08-23T10:34:51.211Z,99805.56
2022-08-23T10:37:19.254Z,99808.59
2022-08-23T10:39:47.512Z,99806.78
2022-08-23T10:42:15.401Z,99809.56
2022-08-23T10:44:43.396Z,99795.69
2022-08-23T10:47:11.201Z,99799.72
2022-08-23T10:49:39.420Z,99796.84
2022-08-23T10:52:07.419Z,99794.16
2022-08-23T10:54:46.173Z,99786.09
2022-08-23T10:57:13.846Z,99788.13
2022-08-23T10:59:41.569Z,99785.72
2022-08-23T11:02:09.304Z,99790.16
2022-08-23T11:04:37.123Z,99791.88
2022-08-23T11:07:05.065Z,99788.69
2022-08-23T11:09:32.787Z,99790.66
2022-08-23T11:12:00.567Z,99794.84
2022-08-23T11:14:28.181Z,99784.63
2022-08-23T11:16:56.233Z,99792.56
2022-08-23T11:19:24.002Z,99785.41
2022-08-23T11:21:51.943Z,99781.31
2022-08-23T11:24:22.562Z,99781.09
2022-08-23T11:26:51.663Z,99783.81
2022-08-23T11:29:19.454Z,99777.06
2022-08-23T11:31:47.662Z,99785.56
2022-08-23T11:34:15.916Z,99784.25
2022-08-23T11:36:44.356Z,99780.00
2022-08-23T11:39:11.974Z,99779.31
2022-08-23T11:41:39.769Z,99780.63
2022-08-23T11:44:07.779Z,99778.28
2022-08-23T11:46:42.747Z,99772.47
2022-08-23T11:49:10.353Z,99770.19
2022-08-23T11:51:38.456Z,99764.50
2022-08-23T11:54:06.122Z,99777.44
2022-08-23T11:56:33.763Z,99773.19
2022-08-23T11:59:02.589Z,99783.06
2022-08-23T12:01:36.395Z,99772.88
2022-08-23T12:04:09.984Z,99777.53
2022-08-23T12:06:39.093Z,99771.59
2022-08-23T12:09:11.377Z,99770.28
2022-08-23T12:11:39.143Z,99780.00
2022-08-23T12:14:06.945Z,99776.88
2022-08-23T12:16:36.304Z,99770.47
2022-08-23T12:19:06.876Z,99770.97
2022-08-23T12:21:37.345Z,99778.81
2022-08-23T12:24:05.496Z,99765.44
2022-08-23T12:26:33.196Z,99769.69
2022-08-23T12:29:01.555Z,99759.75
2022-08-23T12:31:29.294Z,99757.69
2022-08-23T12:33:57.048Z,99770.88
2022-08-23T12:36:25.184Z,99768.69
2022-08-23T12:38:53.687Z,99763.50
2022-08-23T12:41:21.440Z,99764.19
2022-08-23T12:43:50.369Z,99758.94
2022-08-23T12:46:18.976Z,99761.19
2022-08-23T12:48:46.763Z,99761.53
2022-08-23T12:51:17.236Z,99772.41
2022-08-23T12:53:45.714Z,99774.38
2022-08-23T12:56:13.658Z,99778.72
2022-08-23T12:58:41.793Z,99771.34
2022-08-23T13:01:09.556Z,99764.97
2022-08-23T13:03:37.345Z,99771.06
2022-08-23T13:06:05.119Z,99773.25
2022-08-23T13:08:34.857Z,99767.22
2022-08-23T13:11:07.823Z,99771.66
2022-08-23T13:13:36.533Z,99763.34
2022-08-23T13:16:04.344Z,99766.94
2022-08-23T13:18:32.112Z,99766.06
2022-08-23T13:20:59.836Z,99756.63
2022-08-23T13:23:27.899Z,99764.34
2022-08-23T13:25:56.152Z,99754.81
2022-08-23T13:28:23.859Z,99754.31
2022-08-23T13:30:52.387Z,99761.72
2022-08-23T13:33:20.173Z,99755.75
2022-08-23T13:35:49.735Z,99762.31
2022-08-23T13:38:21.446Z,99765.88
2022-08-23T13:40:49.802Z,99765.69
2022-08-23T13:43:17.539Z,99755.84
2022-08-23T13:45:45.365Z,99766.06
2022-08-23T13:48:14.158Z,99763.34
2022-08-23T13:50:41.822Z,99756.69
2022-08-23T13:53:16.709Z,99750.81
2022-08-23T13:55:46.287Z,99747.53
2022-08-23T13:58:14.062Z,99739.25
2022-08-23T14:00:45.768Z,99742.47
2022-08-23T14:03:22.856Z,99750.78
2022-08-23T14:05:50.593Z,99743.63
2022-08-23T14:08:18.231Z,99749.47
2022-08-23T14:10:46.712Z,99752.41
2022-08-23T14:13:14.410Z,99756.28
2022-08-23T14:15:58.900Z,99759.47
2022-08-23T14:18:29.959Z,99753.97
2022-08-23T14:20:57.792Z,99749.06
2022-08-23T14:23:26.215Z,99750.22
2022-08-23T14:25:53.971Z,99758.69
2022-08-23T14:28:21.703Z,99754.72
2022-08-23T14:30:51.815Z,99751.63
2022-08-23T14:33:20.727Z,99752.53
2022-08-23T14:35:48.427Z,99752.84
2022-08-23T14:38:16.441Z,99754.47
2022-08-23T14:40:47.685Z,99753.38
2022-08-23T14:43:15.523Z,99753.91
2022-08-23T14:45:43.454Z,99759.97
2022-08-23T14:48:12.505Z,99754.34
2022-08-23T14:50:41.205Z,99755.94
2022-08-23T14:53:08.946Z,99752.50
2022-08-23T14:55:36.979Z,99749.91
2022-08-23T14:58:05.598Z,99755.00
2022-08-23T15:00:33.386Z,99762.06
2022-08-23T15:03:01.145Z,99762.56
2022-08-23T15:05:29.050Z,99761.72
2022-08-23T15:07:56.670Z,99760.88
2022-08-23T15:13:20.962Z,99759.00
2022-08-23T15:15:54.078Z,99757.88
2022-08-23T15:18:22.020Z,99760.72
2022-08-23T15:20:51.288Z,99751.06
2022-08-23T15:23:20.168Z,99758.78
2022-08-23T15:25:49.846Z,99751.84
2022-08-23T15:28:17.810Z,99753.38
2022-08-23T15:30:45.973Z,99751.91
2022-08-23T15:33:13.785Z,99758.50
2022-08-23T15:35:41.835Z,99756.41
2022-08-23T15:38:09.600Z,99757.03
2022-08-23T15:40:37.565Z,99750.13
2022-08-23T15:43:05.384Z,99745.03
2022-08-23T15:45:33.199Z,99748.16
2022-08-23T15:48:01.440Z,99743.16
2022-08-23T15:50:31.129Z,99743.41
2022-08-23T15:52:59.337Z,99742.25
2022-08-23T15:55:27.304Z,99747.69
2022-08-23T15:57:55.086Z,99748.03
2022-08-23T16:00:23.174Z,99736.88
2022-08-23T16:03:18.726Z,99734.41
2022-08-23T16:05:38.512Z,99737.69
2022-08-23T16:08:06.236Z,99740.91
2022-08-23T16:10:34.270Z,99742.81
2022-08-23T16:13:02.172Z,99740.19
2022-08-23T16:15:29.895Z,99745.47
2022-08-23T16:17:57.642Z,99742.63
2022-08-23T16:20:25.795Z,99738.47
2022-08-23T16:22:53.604Z,99739.28
2022-08-23T16:25:21.333Z,99743.03
2022-08-23T16:27:49.152Z,99743.59
2022-08-23T16:30:16.821Z,99742.03
2022-08-23T16:32:44.539Z,99741.47
2022-08-23T16:35:12.213Z,99737.09
2022-08-23T16:37:39.986Z,99745.81
2022-08-23T16:40:08.226Z,99744.53
2022-08-23T16:42:35.953Z,99746.50
2022-08-23T16:45:03.654Z,99744.25
2022-08-23T16:47:31.620Z,99744.22
2022-08-23T16:49:59.354Z,99750.50
2022-08-23T16:52:34.533Z,99752.13
2022-08-23T16:55:03.666Z,99757.06
2022-08-23T16:57:31.301Z,99755.34
2022-08-23T16:59:58.997Z,99763.00
2022-08-23T17:02:26.775Z,99752.19
2022-08-23T17:04:54.485Z,99756.81
2022-08-23T17:07:22.275Z,99765.91
2022-08-23T17:09:50.290Z,99757.84
2022-08-23T17:12:18.036Z,99758.59
2022-08-23T17:14:45.779Z,99757.72
2022-08-23T17:17:13.500Z,99755.69
2022-08-23T17:19:41.558Z,99757.00
2022-08-23T17:22:09.540Z,99763.00
2022-08-23T17:24:37.515Z,99762.84
2022-08-23T17:27:05.286Z,99765.78
2022-08-23T17:29:34.602Z,99772.56
2022-08-23T17:32:05.426Z,99779.00
2022-08-23T17:34:33.187Z,99776.31
2022-08-23T17:37:00.908Z,99785.00
2022-08-23T17:39:29.371Z,99779.03
2022-08-23T17:41:57.898Z,99787.09
2022-08-23T17:44:25.671Z,99792.97
2022-08-23T17:46:53.608Z,99791.16
2022-08-23T17:49:21.363Z,99797.59
2022-08-23T17:51:49.495Z,99805.69
2022-08-23T17:54:17.276Z,99801.13
2022-08-23T17:56:50.041Z,99804.75
2022-08-23T17:59:18.613Z,99803.19
2022-08-23T18:01:46.511Z,99800.50
2022-08-23T18:04:15.314Z,99806.34
2022-08-23T18:06:43.089Z,99809.13
2022-08-23T18:09:11.148Z,99815.75
2022-08-23T18:11:39.256Z,99823.47
2022-08-23T18:14:07.073Z,99827.34
2022-08-23T18:16:35.797Z,99822.13
2022-08-23T18:19:04.073Z,99833.34
2022-08-23T18:21:31.893Z,99839.94
2022-08-23T18:23:59.621Z,99833.03
2022-08-23T18:26:47.388Z,99841.28
2022-08-23T18:29:15.836Z,99844.50
2022-08-23T18:31:43.608Z,99847.44
2022-08-23T18:34:11.447Z,99840.53
2022-08-23T18:36:39.247Z,99852.56
2022-08-23T18:39:07.658Z,99855.28
2022-08-23T18:41:35.277Z,99846.41
2022-08-23T18:44:03.537Z,99853.75
2022-08-23T18:46:33.812Z,99859.44
2022-08-23T18:49:01.957Z,99865.91
2022-08-23T18:51:29.854Z,99863.97
2022-08-23T18:53:57.951Z,99869.16
2022-08-23T18:56:25.873Z,99874.53
2022-08-23T18:58:53.924Z,99876.13
2022-08-23T19:01:21.822Z,99882.97
2022-08-23T19:03:49.673Z,99882.88
2022-08-23T19:06:17.390Z,99884.50
2022-08-23T19:08:45.293Z,99885.00
2022-08-23T19:11:12.993Z,99892.81
2022-08-23T19:13:40.717Z,99900.09
2022-08-23T19:16:08.486Z,99899.13
2022-08-23T19:18:36.590Z,99901.38
2022-08-23T19:21:04.279Z,99903.16
2022-08-23T19:23:32.011Z,99902.16
2022-08-23T19:25:59.648Z,99910.00
2022-08-23T19:28:27.730Z,99907.75
2022-08-23T19:30:55.447Z,99906.34
2022-08-23T19:33:23.289Z,99913.91
2022-08-23T19:35:50.942Z,99915.84
2022-08-23T19:38:20.966Z,99912.09
2022-08-23T19:40:49.245Z,99918.66
2022-08-23T19:43:18.313Z,99912.34
2022-08-23T19:45:46.091Z,99918.06
2022-08-23T19:48:13.893Z,99913.66
2022-08-23T19:50:42.168Z,99915.78
2022-08-23T19:53:09.785Z,99923.78
2022-08-23T19:55:37.533Z,99921.28
2022-08-23T19:58:06.071Z,99919.59
2022-08-23T20:00:34.098Z,99924.22
2022-08-23T20:03:01.989Z,99920.69
2022-08-23T20:05:29.789Z,99926.13
2022-08-23T20:07:57.507Z,99926.78
2022-08-23T20:10:25.325Z,99927.81
2022-08-23T20:12:53.096Z,99932.84
2022-08-23T20:15:20.727Z,99930.94
2022-08-23T20:17:48.735Z,99939.91
2022-08-23T20:20:16.496Z,99933.19
2022-08-23T20:23:02.087Z,99945.31
2022-08-23T20:25:30.902Z,99947.56
2022-08-23T20:27:58.690Z,99940.88
2022-08-23T20:30:26.456Z,99950.66
2022-08-23T20:32:55.037Z,99944.16
2022-08-23T20:35:22.802Z,99959.22
2022-08-23T20:37:50.543Z,99943.72
2022-08-23T20:40:18.625Z,99948.72
2022-08-23T20:42:46.290Z,99949.94
2022-08-23T20:45:14.024Z,99949.94
2022-08-23T20:47:41.775Z,99943.69
2022-08-23T20:50:09.483Z,99947.22
2022-08-23T20:52:37.183Z,99948.09
2022-08-23T20:55:09.547Z,99948.09
2022-08-23T20:57:39.102Z,99948.09
2022-08-23T21:00:07.503Z,99950.38
2022-08-23T21:02:35.277Z,99949.84
2022-08-23T21:05:06.343Z,99953.16
2022-08-23T21:07:34.408Z,99953.50
2022-08-23T21:10:02.310Z,99950.59
2022-08-23T21:12:30.109Z,99948.25
2022-08-23T21:14:57.751Z,99953.88
2022-08-23T21:17:25.444Z,99957.19
2022-08-23T21:19:53.393Z,99957.59
2022-08-23T21:22:21.138Z,99962.59
2022-08-23T21:24:48.992Z,99958.97
2022-08-23T21:27:16.666Z,99960.81
2022-08-23T21:29:44.722Z,99954.50
2022-08-23T21:32:12.590Z,99950.69
2022-08-23T21:34:40.246Z,99955.50
2022-08-23T21:37:07.953Z,99954.63
2022-08-23T21:39:35.895Z,99959.41
2022-08-23T21:42:14.852Z,99953.34
2022-08-23T21:44:43.121Z,99958.09
2022-08-23T21:47:11.215Z,99953.53
2022-08-23T21:49:39.144Z,99953.97
2022-08-23T21:52:06.870Z,99956.13
2022-08-23T21:54:35.082Z,99957.03
2022-08-23T21:57:03.139Z,99955.81
2022-08-23T21:59:30.902Z,99957.31
2022-08-23T22:01:58.629Z,99957.31
2022-08-23T22:04:26.473Z,99946.63
2022-08-23T22:06:56.055Z,99962.09
2022-08-23T22:09:31.500Z,99962.09
2022-08-23T22:12:00.345Z,99954.59
2022-08-23T22:14:31.457Z,99960.03
2022-08-23T22:16:59.897Z,99952.91
2022-08-23T22:19:27.646Z,99962.56
2022-08-23T22:21:55.463Z,99956.91
2022-08-23T22:24:25.771Z,99957.56
2022-08-23T22:26:54.745Z,99958.19
2022-08-23T22:29:22.505Z,99960.06
2022-08-23T22:31:50.190Z,99960.91
2022-08-23T22:34:18.072Z,99957.16
2022-08-23T22:36:51.428Z,99966.16
2022-08-23T22:39:20.638Z,99960.72
2022-08-23T22:41:48.302Z,99962.59
2022-08-23T22:44:16.000Z,99960.03
2022-08-23T22:46:44.103Z,99967.69
2022-08-23T22:49:11.874Z,99975.31
2022-08-23T22:51:41.549Z,99971.03
2022-08-23T22:54:09.331Z,99968.47
2022-08-23T22:56:37.901Z,99964.41
2022-08-23T22:59:05.994Z,99967.25
2022-08-23T23:01:34.156Z,99969.91
2022-08-23T23:04:02.245Z,99976.94
2022-08-23T23:06:30.007Z,99974.63
2022-08-23T23:08:58.027Z,99977.34
2022-08-23T23:11:25.697Z,99984.84
2022-08-23T23:13:53.608Z,99991.47
2022-08-23T23:16:21.314Z,99991.88
2022-08-23T23:19:09.438Z,99987.47
2022-08-23T23:21:36.032Z,99983.91
2022-08-23T23:24:04.299Z,99979.13
2022-08-23T23:26:31.932Z,99982.31
2022-08-23T23:28:59.593Z,99993.59
2022-08-23T23:31:27.211Z,99993.88
2022-08-23T23:33:54.996Z,99990.19
2022-08-23T23:36:22.655Z,99982.94
2022-08-23T23:38:50.611Z,99974.66
2022-08-23T23:41:18.314Z,99980.72
2022-08-23T23:43:46.069Z,99975.97
2022-08-23T23:46:13.759Z,99976.78
2022-08-23T23:48:41.922Z,99979.50
2022-08-23T23:51:09.554Z,99981.19
2022-08-23T23:53:37.294Z,99981.41
2022-08-23T23:56:04.965Z,99980.94
2022-08-23T23:58:32.909Z,99978.81
